MiSS Pamela — WDC3060 — position and weather

sailwx.info

Track history (hours):
 
Tides and Currents Weather Stations Pressure Air Temp Water Temp Dewpoint Dewpoint Depression Visibility Wind Speed Wind Dir Waves Ship Positions

MiSS Pamela

Owner: CENTRAL BOAT RENTALS, BERWICK, LA. More information available from US FCC via Universal Licensing System and Coast Guard Vessel Documentation Center.

Last reported at 2018-Jul-22 14:58 UTC. Time now 2018-Jul-22 16:27 UTC.
Position N 29°56' W 092°56'.

Length 7 m; draft 3 m.

Type: Tug. MMSI: 367002130.

Date/timePositionNaut miles runAvg speedWind from/ knotsBaromVisibWave heightAir tempDewpointWater temp
2018-Jul-22 14:58N 29°56' W 092°56'6 5.7
2018-Jul-22 13:59N 29°56' W 093°03'7 5.2
2018-Jul-22 12:38N 29°57' W 093°11'2 4.8
2018-Jul-22 12:07N 29°59' W 093°12'1 5.1
2018-Jul-22 11:51N 30°00' W 093°13'2 4.7
2018-Jul-22 11:25N 30°02' W 093°15'2 4.5
2018-Jul-22 10:55N 30°04' W 093°16'1 3.3
2018-Jul-22 10:30N 30°05' W 093°17'1 1.6
2018-Jul-22 10:00N 30°05' W 093°18'1 1.0
2018-Jul-22 09:27N 30°06' W 093°18'0 0.3
2018-Jul-22 07:55N 30°06' W 093°18'0 0.0
2018-Jul-22 07:22N 30°06' W 093°18'0 0.0
2018-Jul-22 06:56N 30°06' W 093°18'0 0.0
2018-Jul-22 06:28N 30°06' W 093°18'0 0.0
2018-Jul-22 06:00N 30°06' W 093°18'0 0.0
2018-Jul-22 05:30N 30°06' W 093°18'0 0.0
2018-Jul-22 05:00N 30°06' W 093°18'0 0.0
2018-Jul-22 04:31N 30°06' W 093°18'0 0.0
2018-Jul-22 04:01N 30°06' W 093°18'0 0.0
2018-Jul-22 03:31N 30°06' W 093°18'0 0.0
2018-Jul-22 03:01N 30°06' W 093°18'0 0.0
2018-Jul-22 02:31N 30°06' W 093°18'0 0.0
2018-Jul-22 02:01N 30°06' W 093°18'0 0.0
2018-Jul-22 01:30N 30°06' W 093°18'0 0.0
2018-Jul-22 01:01N 30°06' W 093°18'0 0.0
2018-Jul-22 00:31N 30°06' W 093°18'0 0.0
2018-Jul-22 00:01N 30°06' W 093°18'0 0.0
2018-Jul-21 23:31N 30°06' W 093°18'0 0.0
2018-Jul-21 23:00N 30°06' W 093°18'0 0.0
2018-Jul-21 22:30N 30°06' W 093°18'0 0.0
2018-Jul-21 22:00N 30°06' W 093°18'0 0.0
2018-Jul-21 21:31N 30°06' W 093°18'0 0.0
2018-Jul-21 21:01N 30°06' W 093°18'0 0.0
2018-Jul-21 20:30N 30°06' W 093°18'0 0.0
2018-Jul-21 20:00N 30°06' W 093°18'0 0.0
2018-Jul-21 19:30N 30°06' W 093°18'0 0.0
2018-Jul-21 19:01N 30°06' W 093°18'0 0.0
2018-Jul-21 18:30N 30°06' W 093°18'0 0.0
2018-Jul-21 18:01N 30°06' W 093°18'0 0.0
2018-Jul-21 17:30N 30°06' W 093°18'0 0.0
2018-Jul-21 17:01N 30°06' W 093°18'0 0.0
2018-Jul-21 16:31N 30°06' W 093°18'0 0.0
2018-Jul-21 16:01N 30°06' W 093°18'0 0.0
2018-Jul-21 15:30N 30°06' W 093°18'0 0.0
2018-Jul-21 15:01N 30°06' W 093°18'0 0.0
2018-Jul-21 14:30N 30°06' W 093°18'2 1.6
2018-Jul-21 13:30N 30°05' W 093°20'2 4.2
2018-Jul-21 13:01N 30°04' W 093°21'2 4.5
2018-Jul-21 12:30N 30°04' W 093°24'2 3.5
2018-Jul-21 11:58N 30°04' W 093°26'1 2.5
2018-Jul-21 11:29N 30°04' W 093°27'1 0.6
2018-Jul-21 09:55N 30°04' W 093°28'2 1.0
2018-Jul-21 08:18N 30°04' W 093°30'0 0.0
2018-Jul-21 06:02N 30°04' W 093°30'0 2.8
2018-Jul-21 05:57N 30°04' W 093°31'1 0.4
2018-Jul-21 04:38N 30°04' W 093°31'0 1.4
2018-Jul-21 04:23N 30°04' W 093°32'2 4.7
2018-Jul-21 04:01N 30°04' W 093°34'1 1.9
2018-Jul-21 03:22N 30°04' W 093°35'1 2.6
2018-Jul-21 03:00N 30°04' W 093°36'1 1.1
2018-Jul-21 02:24N 30°03' W 093°37'0 0.0
2018-Jul-21 02:00N 30°03' W 093°37'0 0.0
2018-Jul-21 01:30N 30°03' W 093°37'0 0.0
2018-Jul-21 00:59N 30°03' W 093°37'0 0.0
2018-Jul-21 00:23N 30°03' W 093°37'0 0.0
2018-Jul-20 23:49N 30°03' W 093°37'1 0.3
2018-Jul-20 19:07N 30°04' W 093°38'0 2.6
2018-Jul-20 19:00N 30°04' W 093°39'2 4.0
2018-Jul-20 18:29N 30°04' W 093°41'2 3.7
2018-Jul-20 17:56N 30°03' W 093°43'1 1.6
2018-Jul-20 17:30N 30°03' W 093°44'1 2.9
2018-Jul-20 17:00N 30°01' W 093°45'3 6.8
2018-Jul-20 16:31N 29°59' W 093°48'3 6.1
2018-Jul-20 15:59N 29°58' W 093°51'3 6.6
2018-Jul-20 15:30N 29°55' W 093°53'3 6.8
2018-Jul-20 15:01N 29°53' W 093°55'3 6.6
2018-Jul-20 14:31N 29°50' W 093°57'3 5.1
2018-Jul-20 14:00N 29°49' W 093°60'3 6.6
2018-Jul-20 13:30N 29°46' W 094°03'3 6.8
2018-Jul-20 13:00N 29°44' W 094°06'15 6.3
2018-Jul-20 10:37N 29°37' W 094°21'1 6.4
2018-Jul-20 10:28N 29°36' W 094°22'3 5.9
2018-Jul-20 10:00N 29°36' W 094°25'3 5.2
2018-Jul-20 09:22N 29°33' W 094°28'3 6.1
2018-Jul-20 08:51N 29°31' W 094°30'7 5.0
2018-Jul-20 07:33N 29°29' W 094°37'2 6.0
2018-Jul-20 07:10N 29°28' W 094°40'1 6.0
2018-Jul-20 07:00N 29°27' W 094°41'3 5.7
2018-Jul-20 06:29N 29°25' W 094°43'2 4.5
2018-Jul-20 05:59N 29°24' W 094°45'3 6.3
2018-Jul-20 05:27N 29°22' W 094°48'3 6.1
2018-Jul-20 05:00N 29°20' W 094°50'3 6.3
2018-Jul-20 04:30N 29°18' W 094°53'3 5.8
2018-Jul-20 04:00N 29°17' W 094°56'2 4.8
2018-Jul-20 03:30N 29°16' W 094°59'3 6.5
2018-Jul-20 03:01N 29°14' W 095°01'3 6.1
2018-Jul-20 02:31N 29°12' W 095°04'3 5.0
2018-Jul-20 02:00N 29°10' W 095°06'0 0.5
2018-Jul-20 01:31N 29°10' W 095°06'3 5.5
2018-Jul-20 01:00N 29°09' W 095°09'3 6.7
2018-Jul-20 00:31N 29°07' W 095°12'3 6.1
2018-Jul-20 00:00N 29°04' W 095°13'9 1.3
2018-Jul-19 16:50N 28°57' W 095°20'1 1.3
2018-Jul-19 16:27N 28°56' W 095°20'0 0.0
2018-Jul-19 15:57N 28°56' W 095°20'0 0.0
2018-Jul-19 14:34N 28°56' W 095°20'0 0.0
2018-Jul-19 14:21N 28°56' W 095°20'0 0.0
2018-Jul-19 12:35N 28°56' W 095°20'0 0.0
2018-Jul-19 12:27N 28°56' W 095°20'0 0.0
2018-Jul-19 12:00N 28°56' W 095°20'0 0.0
2018-Jul-19 11:23N 28°56' W 095°20'0 0.0
2018-Jul-19 10:59N 28°56' W 095°20'0 0.0
2018-Jul-19 10:29N 28°56' W 095°20'0 0.0
2018-Jul-19 09:55N 28°56' W 095°20'0 0.0
2018-Jul-19 09:30N 28°56' W 095°20'0 0.0
2018-Jul-19 09:00N 28°56' W 095°20'0 0.0
2018-Jul-19 08:30N 28°56' W 095°20'0 0.0
2018-Jul-19 07:59N 28°56' W 095°20'0 0.0
2018-Jul-19 07:27N 28°56' W 095°20'0 0.0
2018-Jul-19 07:00N 28°56' W 095°20'0 0.0
2018-Jul-19 06:30N 28°56' W 095°20'0 0.0
2018-Jul-19 06:00N 28°56' W 095°20'0 0.0
2018-Jul-19 05:30N 28°56' W 095°20'0 0.0
2018-Jul-19 05:00N 28°56' W 095°20'1 2.9
2018-Jul-19 04:30N 28°57' W 095°19'3 5.1
2018-Jul-19 04:01N 28°59' W 095°17'5 5.2
2018-Jul-19 03:04N 29°03' W 095°14'1 5.4
2018-Jul-19 02:52N 29°04' W 095°13'2 5.5
2018-Jul-19 02:30N 29°05' W 095°12'2 4.0
2018-Jul-19 02:00N 29°07' W 095°11'3 5.1
2018-Jul-19 01:30N 29°09' W 095°09'3 5.9
2018-Jul-19 01:01N 29°10' W 095°06'0 0.2
2018-Jul-19 00:31N 29°11' W 095°06'2 3.1
2018-Jul-19 00:01N 29°11' W 095°05'2 3.2
2018-Jul-18 23:30N 29°12' W 095°03'0 0.0
2018-Jul-18 23:01N 29°12' W 095°03'0 0.0
2018-Jul-18 22:30N 29°12' W 095°03'0 0.8
2018-Jul-18 22:00N 29°12' W 095°03'0 0.1
2018-Jul-18 21:30N 29°12' W 095°03'1 2.1
2018-Jul-18 21:00N 29°13' W 095°02'3 5.8
2018-Jul-18 20:30N 29°16' W 094°60'4 5.3
2018-Jul-18 19:40N 29°17' W 094°55'1 5.8
2018-Jul-18 19:30N 29°17' W 094°54'29 5.7
2018-Jul-18 14:29N 29°34' W 094°28'5 4.6
2018-Jul-18 13:30N 29°36' W 094°23'3 5.6
2018-Jul-18 13:00N 29°37' W 094°20'3 5.6
2018-Jul-18 12:30N 29°38' W 094°17'3 5.7
2018-Jul-18 12:00N 29°40' W 094°14'3 5.6
2018-Jul-18 11:30N 29°41' W 094°11'6 5.5
2018-Jul-18 10:30N 29°44' W 094°06'3 5.5
2018-Jul-18 10:00N 29°46' W 094°04'3 5.5
2018-Jul-18 09:30N 29°47' W 094°01'3 5.3
2018-Jul-18 09:00N 29°49' W 093°59'3 6.1
2018-Jul-18 08:30N 29°51' W 093°57'4 7.5
2018-Jul-18 08:00N 29°54' W 093°54'4 7.4
2018-Jul-18 07:30N 29°57' W 093°52'3 5.4
2018-Jul-18 06:58N 29°59' W 093°49'3 6.4
2018-Jul-18 06:28N 30°01' W 093°46'8 4.3
2018-Jul-18 04:37N 30°04' W 093°37'1 3.2
2018-Jul-18 04:10N 30°04' W 093°35'1 3.3
2018-Jul-18 03:47N 30°04' W 093°34'1 3.1
2018-Jul-18 03:28N 30°04' W 093°33'1 3.2
2018-Jul-18 03:00N 30°04' W 093°31'2 3.6
2018-Jul-18 02:30N 30°04' W 093°29'2 3.5
2018-Jul-18 02:00N 30°04' W 093°27'2 3.3
2018-Jul-18 01:30N 30°04' W 093°25'2 3.4
2018-Jul-18 01:00N 30°04' W 093°23'2 3.5
2018-Jul-18 00:30N 30°04' W 093°21'2 4.0
2018-Jul-18 00:00N 30°05' W 093°20'2 3.5
2018-Jul-17 23:30N 30°05' W 093°18'1 1.8
2018-Jul-17 23:00N 30°05' W 093°17'0 0.1
2018-Jul-17 22:30N 30°05' W 093°17'0 0.1
2018-Jul-17 22:00N 30°05' W 093°17'0 0.1
2018-Jul-17 21:30N 30°05' W 093°17'0 0.0
2018-Jul-17 21:00N 30°05' W 093°17'0 0.0
2018-Jul-17 20:30N 30°05' W 093°17'0 0.0
2018-Jul-17 20:00N 30°05' W 093°17'0 0.0
2018-Jul-17 19:30N 30°05' W 093°17'0 0.0
2018-Jul-17 19:00N 30°05' W 093°17'0 0.0
2018-Jul-17 18:30N 30°05' W 093°17'0 0.0
2018-Jul-17 18:00N 30°05' W 093°17'0 0.0
2018-Jul-17 17:30N 30°05' W 093°17'0 0.0
2018-Jul-17 17:00N 30°05' W 093°17'0 0.0
2018-Jul-17 16:30N 30°05' W 093°17'0 0.0
2018-Jul-17 16:00N 30°05' W 093°17'0 0.0
2018-Jul-17 15:30N 30°05' W 093°17'0 0.0
2018-Jul-17 15:00N 30°05' W 093°17'0 0.0
2018-Jul-17 14:30N 30°05' W 093°17'0 0.0
2018-Jul-17 14:00N 30°05' W 093°17'0 0.0
2018-Jul-17 13:30N 30°05' W 093°17'0 0.0
2018-Jul-17 13:00N 30°05' W 093°17'0 0.0
2018-Jul-17 12:30N 30°05' W 093°17'0 0.0
2018-Jul-17 12:00N 30°05' W 093°17'0 0.0
2018-Jul-17 11:30N 30°05' W 093°17'0 0.0
2018-Jul-17 11:00N 30°05' W 093°17'0 0.0
2018-Jul-17 10:30N 30°05' W 093°17'0 0.0
2018-Jul-17 10:00N 30°05' W 093°17'1 1.9
2018-Jul-17 09:30N 30°04' W 093°16'1 1.8
2018-Jul-17 09:00N 30°03' W 093°16'1 2.5
2018-Jul-17 08:30N 30°02' W 093°15'0 0.0
2018-Jul-17 08:00N 30°02' W 093°15'0 0.0
2018-Jul-17 07:30N 30°02' W 093°15'0 0.0
2018-Jul-17 07:00N 30°02' W 093°15'0 0.0
2018-Jul-17 06:26N 30°02' W 093°15'0 0.0
2018-Jul-17 05:59N 30°02' W 093°15'0 0.0
2018-Jul-17 05:20N 30°02' W 093°15'0 0.0
2018-Jul-17 05:00N 30°02' W 093°15'0 0.0
2018-Jul-17 04:18N 30°02' W 093°15'0 0.0
2018-Jul-17 03:42N 30°02' W 093°15'0 0.0
2018-Jul-17 03:15N 30°02' W 093°15'0 0.0
2018-Jul-17 03:00N 30°02' W 093°15'0 0.0
2018-Jul-17 02:30N 30°02' W 093°15'0 0.0
2018-Jul-17 02:00N 30°02' W 093°15'0 0.0
2018-Jul-17 01:30N 30°02' W 093°15'0 0.0
2018-Jul-17 01:00N 30°02' W 093°15'0 0.0
2018-Jul-17 00:30N 30°02' W 093°15'0 0.0
2018-Jul-16 23:30N 30°02' W 093°15'0 0.0
2018-Jul-16 23:00N 30°02' W 093°15'0 0.0
2018-Jul-16 22:30N 30°02' W 093°15'0 0.0
2018-Jul-16 22:00N 30°02' W 093°15'0 0.0
2018-Jul-16 21:30N 30°02' W 093°15'0 0.0
2018-Jul-16 21:00N 30°02' W 093°15'0 0.0
2018-Jul-16 20:30N 30°02' W 093°15'0 0.0
2018-Jul-16 20:00N 30°02' W 093°15'0 0.0
2018-Jul-16 19:30N 30°02' W 093°15'0 0.0
2018-Jul-16 19:00N 30°02' W 093°15'0 0.0
2018-Jul-16 18:30N 30°02' W 093°15'0 0.0
2018-Jul-16 18:00N 30°02' W 093°15'0 0.0
2018-Jul-16 17:30N 30°02' W 093°15'0 0.0
2018-Jul-16 16:59N 30°02' W 093°15'0 0.0
2018-Jul-16 16:30N 30°02' W 093°15'0 0.0
2018-Jul-16 15:59N 30°02' W 093°15'0 0.0
2018-Jul-16 15:30N 30°02' W 093°15'0 0.0
2018-Jul-16 15:00N 30°02' W 093°15'0 0.0
2018-Jul-16 14:30N 30°02' W 093°15'0 0.0
2018-Jul-16 14:00N 30°02' W 093°15'0 0.0
2018-Jul-16 13:30N 30°02' W 093°15'0 0.0
2018-Jul-16 13:00N 30°02' W 093°15'0 0.0
2018-Jul-16 12:30N 30°02' W 093°15'0 0.0
2018-Jul-16 12:00N 30°02' W 093°15'0 0.0
2018-Jul-16 11:30N 30°02' W 093°15'0 0.1
2018-Jul-16 11:00N 30°02' W 093°15'0 0.0
2018-Jul-16 10:31N 30°02' W 093°15'0 0.0
2018-Jul-16 10:01N 30°02' W 093°15'0 0.0
2018-Jul-16 09:30N 30°02' W 093°15'0 0.0
2018-Jul-16 09:00N 30°02' W 093°15'1 1.3
2018-Jul-16 08:30N 30°02' W 093°14'2 3.3
2018-Jul-16 07:59N 30°00' W 093°13'5 0.8
2018-Jul-16 00:57N 29°56' W 093°09'2 0.2
2018-Jul-15 13:15N 29°56' W 093°07'40 2.4
2018-Jul-14 20:56N 29°51' W 092°22'3 5.7
2018-Jul-14 20:24N 29°50' W 092°18'2 5.5
2018-Jul-14 20:00N 29°49' W 092°16'3 5.9
2018-Jul-14 19:30N 29°48' W 092°13'1 1.7
2018-Jul-14 19:00N 29°47' W 092°12'1 2.7
2018-Jul-14 18:30N 29°47' W 092°11'3 5.5
2018-Jul-14 18:00N 29°47' W 092°08'3 5.4
2018-Jul-14 17:30N 29°48' W 092°05'  
Track history (hours):
 
Tides and Currents Weather Stations Pressure Air Temp Water Temp Dewpoint Dewpoint Depression Visibility Wind Speed Wind Dir Waves Ship Positions

MiSS Pamela

Owner: CENTRAL BOAT RENTALS, BERWICK, LA. More information available from US FCC via Universal Licensing System and Coast Guard Vessel Documentation Center.

Last reported at 2018-Jul-22 14:58 UTC. Time now 2018-Jul-22 16:27 UTC.
Position N 29°56' W 092°56'.

Length 7 m; draft 3 m.

Type: Tug. MMSI: 367002130.

Date/timePositionNaut miles runAvg speedWind from/ knotsBaromVisibWave heightAir tempDewpointWater temp
2018-Jul-22 14:58N 29°56' W 092°56'6 5.7
2018-Jul-22 13:59N 29°56' W 093°03'7 5.2
2018-Jul-22 12:38N 29°57' W 093°11'2 4.8
2018-Jul-22 12:07N 29°59' W 093°12'1 5.1
2018-Jul-22 11:51N 30°00' W 093°13'2 4.7
2018-Jul-22 11:25N 30°02' W 093°15'2 4.5
2018-Jul-22 10:55N 30°04' W 093°16'1 3.3
2018-Jul-22 10:30N 30°05' W 093°17'1 1.6
2018-Jul-22 10:00N 30°05' W 093°18'1 1.0
2018-Jul-22 09:27N 30°06' W 093°18'0 0.3
2018-Jul-22 07:55N 30°06' W 093°18'0 0.0
2018-Jul-22 07:22N 30°06' W 093°18'0 0.0
2018-Jul-22 06:56N 30°06' W 093°18'0 0.0
2018-Jul-22 06:28N 30°06' W 093°18'0 0.0
2018-Jul-22 06:00N 30°06' W 093°18'0 0.0
2018-Jul-22 05:30N 30°06' W 093°18'0 0.0
2018-Jul-22 05:00N 30°06' W 093°18'0 0.0
2018-Jul-22 04:31N 30°06' W 093°18'0 0.0
2018-Jul-22 04:01N 30°06' W 093°18'0 0.0
2018-Jul-22 03:31N 30°06' W 093°18'0 0.0
2018-Jul-22 03:01N 30°06' W 093°18'0 0.0
2018-Jul-22 02:31N 30°06' W 093°18'0 0.0
2018-Jul-22 02:01N 30°06' W 093°18'0 0.0
2018-Jul-22 01:30N 30°06' W 093°18'0 0.0
2018-Jul-22 01:01N 30°06' W 093°18'0 0.0
2018-Jul-22 00:31N 30°06' W 093°18'0 0.0
2018-Jul-22 00:01N 30°06' W 093°18'0 0.0
2018-Jul-21 23:31N 30°06' W 093°18'0 0.0
2018-Jul-21 23:00N 30°06' W 093°18'0 0.0
2018-Jul-21 22:30N 30°06' W 093°18'0 0.0
2018-Jul-21 22:00N 30°06' W 093°18'0 0.0
2018-Jul-21 21:31N 30°06' W 093°18'0 0.0
2018-Jul-21 21:01N 30°06' W 093°18'0 0.0
2018-Jul-21 20:30N 30°06' W 093°18'0 0.0
2018-Jul-21 20:00N 30°06' W 093°18'0 0.0
2018-Jul-21 19:30N 30°06' W 093°18'0 0.0
2018-Jul-21 19:01N 30°06' W 093°18'0 0.0
2018-Jul-21 18:30N 30°06' W 093°18'0 0.0
2018-Jul-21 18:01N 30°06' W 093°18'0 0.0
2018-Jul-21 17:30N 30°06' W 093°18'0 0.0
2018-Jul-21 17:01N 30°06' W 093°18'0 0.0
2018-Jul-21 16:31N 30°06' W 093°18'0 0.0
2018-Jul-21 16:01N 30°06' W 093°18'0 0.0
2018-Jul-21 15:30N 30°06' W 093°18'0 0.0
2018-Jul-21 15:01N 30°06' W 093°18'0 0.0
2018-Jul-21 14:30N 30°06' W 093°18'2 1.6
2018-Jul-21 13:30N 30°05' W 093°20'2 4.2
2018-Jul-21 13:01N 30°04' W 093°21'2 4.5
2018-Jul-21 12:30N 30°04' W 093°24'2 3.5
2018-Jul-21 11:58N 30°04' W 093°26'1 2.5
2018-Jul-21 11:29N 30°04' W 093°27'1 0.6
2018-Jul-21 09:55N 30°04' W 093°28'2 1.0
2018-Jul-21 08:18N 30°04' W 093°30'0 0.0
2018-Jul-21 06:02N 30°04' W 093°30'0 2.8
2018-Jul-21 05:57N 30°04' W 093°31'1 0.4
2018-Jul-21 04:38N 30°04' W 093°31'0 1.4
2018-Jul-21 04:23N 30°04' W 093°32'2 4.7
2018-Jul-21 04:01N 30°04' W 093°34'1 1.9
2018-Jul-21 03:22N 30°04' W 093°35'1 2.6
2018-Jul-21 03:00N 30°04' W 093°36'1 1.1
2018-Jul-21 02:24N 30°03' W 093°37'0 0.0
2018-Jul-21 02:00N 30°03' W 093°37'0 0.0
2018-Jul-21 01:30N 30°03' W 093°37'0 0.0
2018-Jul-21 00:59N 30°03' W 093°37'0 0.0
2018-Jul-21 00:23N 30°03' W 093°37'0 0.0
2018-Jul-20 23:49N 30°03' W 093°37'1 0.3
2018-Jul-20 19:07N 30°04' W 093°38'0 2.6
2018-Jul-20 19:00N 30°04' W 093°39'2 4.0
2018-Jul-20 18:29N 30°04' W 093°41'2 3.7
2018-Jul-20 17:56N 30°03' W 093°43'1 1.6
2018-Jul-20 17:30N 30°03' W 093°44'1 2.9
2018-Jul-20 17:00N 30°01' W 093°45'3 6.8
2018-Jul-20 16:31N 29°59' W 093°48'3 6.1
2018-Jul-20 15:59N 29°58' W 093°51'3 6.6
2018-Jul-20 15:30N 29°55' W 093°53'3 6.8
2018-Jul-20 15:01N 29°53' W 093°55'3 6.6
2018-Jul-20 14:31N 29°50' W 093°57'3 5.1
2018-Jul-20 14:00N 29°49' W 093°60'3 6.6
2018-Jul-20 13:30N 29°46' W 094°03'3 6.8
2018-Jul-20 13:00N 29°44' W 094°06'15 6.3
2018-Jul-20 10:37N 29°37' W 094°21'1 6.4
2018-Jul-20 10:28N 29°36' W 094°22'3 5.9
2018-Jul-20 10:00N 29°36' W 094°25'3 5.2
2018-Jul-20 09:22N 29°33' W 094°28'3 6.1
2018-Jul-20 08:51N 29°31' W 094°30'7 5.0
2018-Jul-20 07:33N 29°29' W 094°37'2 6.0
2018-Jul-20 07:10N 29°28' W 094°40'1 6.0
2018-Jul-20 07:00N 29°27' W 094°41'3 5.7
2018-Jul-20 06:29N 29°25' W 094°43'2 4.5
2018-Jul-20 05:59N 29°24' W 094°45'3 6.3
2018-Jul-20 05:27N 29°22' W 094°48'3 6.1
2018-Jul-20 05:00N 29°20' W 094°50'3 6.3
2018-Jul-20 04:30N 29°18' W 094°53'3 5.8
2018-Jul-20 04:00N 29°17' W 094°56'2 4.8
2018-Jul-20 03:30N 29°16' W 094°59'3 6.5
2018-Jul-20 03:01N 29°14' W 095°01'3 6.1
2018-Jul-20 02:31N 29°12' W 095°04'3 5.0
2018-Jul-20 02:00N 29°10' W 095°06'0 0.5
2018-Jul-20 01:31N 29°10' W 095°06'3 5.5
2018-Jul-20 01:00N 29°09' W 095°09'3 6.7
2018-Jul-20 00:31N 29°07' W 095°12'3 6.1
2018-Jul-20 00:00N 29°04' W 095°13'9 1.3
2018-Jul-19 16:50N 28°57' W 095°20'1 1.3
2018-Jul-19 16:27N 28°56' W 095°20'0 0.0
2018-Jul-19 15:57N 28°56' W 095°20'0 0.0
2018-Jul-19 14:34N 28°56' W 095°20'0 0.0
2018-Jul-19 14:21N 28°56' W 095°20'0 0.0
2018-Jul-19 12:35N 28°56' W 095°20'0 0.0
2018-Jul-19 12:27N 28°56' W 095°20'0 0.0
2018-Jul-19 12:00N 28°56' W 095°20'0 0.0
2018-Jul-19 11:23N 28°56' W 095°20'0 0.0
2018-Jul-19 10:59N 28°56' W 095°20'0 0.0
2018-Jul-19 10:29N 28°56' W 095°20'0 0.0
2018-Jul-19 09:55N 28°56' W 095°20'0 0.0
2018-Jul-19 09:30N 28°56' W 095°20'0 0.0
2018-Jul-19 09:00N 28°56' W 095°20'0 0.0
2018-Jul-19 08:30N 28°56' W 095°20'0 0.0
2018-Jul-19 07:59N 28°56' W 095°20'0 0.0
2018-Jul-19 07:27N 28°56' W 095°20'0 0.0
2018-Jul-19 07:00N 28°56' W 095°20'0 0.0
2018-Jul-19 06:30N 28°56' W 095°20'0 0.0
2018-Jul-19 06:00N 28°56' W 095°20'0 0.0
2018-Jul-19 05:30N 28°56' W 095°20'0 0.0
2018-Jul-19 05:00N 28°56' W 095°20'1 2.9
2018-Jul-19 04:30N 28°57' W 095°19'3 5.1
2018-Jul-19 04:01N 28°59' W 095°17'5 5.2
2018-Jul-19 03:04N 29°03' W 095°14'1 5.4
2018-Jul-19 02:52N 29°04' W 095°13'2 5.5
2018-Jul-19 02:30N 29°05' W 095°12'2 4.0
2018-Jul-19 02:00N 29°07' W 095°11'3 5.1
2018-Jul-19 01:30N 29°09' W 095°09'3 5.9
2018-Jul-19 01:01N 29°10' W 095°06'0 0.2
2018-Jul-19 00:31N 29°11' W 095°06'2 3.1
2018-Jul-19 00:01N 29°11' W 095°05'2 3.2
2018-Jul-18 23:30N 29°12' W 095°03'0 0.0
2018-Jul-18 23:01N 29°12' W 095°03'0 0.0
2018-Jul-18 22:30N 29°12' W 095°03'0 0.8
2018-Jul-18 22:00N 29°12' W 095°03'0 0.1
2018-Jul-18 21:30N 29°12' W 095°03'1 2.1
2018-Jul-18 21:00N 29°13' W 095°02'3 5.8
2018-Jul-18 20:30N 29°16' W 094°60'4 5.3
2018-Jul-18 19:40N 29°17' W 094°55'1 5.8
2018-Jul-18 19:30N 29°17' W 094°54'29 5.7
2018-Jul-18 14:29N 29°34' W 094°28'5 4.6
2018-Jul-18 13:30N 29°36' W 094°23'3 5.6
2018-Jul-18 13:00N 29°37' W 094°20'3 5.6
2018-Jul-18 12:30N 29°38' W 094°17'3 5.7
2018-Jul-18 12:00N 29°40' W 094°14'3 5.6
2018-Jul-18 11:30N 29°41' W 094°11'6 5.5
2018-Jul-18 10:30N 29°44' W 094°06'3 5.5
2018-Jul-18 10:00N 29°46' W 094°04'3 5.5
2018-Jul-18 09:30N 29°47' W 094°01'3 5.3
2018-Jul-18 09:00N 29°49' W 093°59'3 6.1
2018-Jul-18 08:30N 29°51' W 093°57'4 7.5
2018-Jul-18 08:00N 29°54' W 093°54'4 7.4
2018-Jul-18 07:30N 29°57' W 093°52'3 5.4
2018-Jul-18 06:58N 29°59' W 093°49'3 6.4
2018-Jul-18 06:28N 30°01' W 093°46'8 4.3
2018-Jul-18 04:37N 30°04' W 093°37'1 3.2
2018-Jul-18 04:10N 30°04' W 093°35'1 3.3
2018-Jul-18 03:47N 30°04' W 093°34'1 3.1
2018-Jul-18 03:28N 30°04' W 093°33'1 3.2
2018-Jul-18 03:00N 30°04' W 093°31'2 3.6
2018-Jul-18 02:30N 30°04' W 093°29'2 3.5
2018-Jul-18 02:00N 30°04' W 093°27'2 3.3
2018-Jul-18 01:30N 30°04' W 093°25'2 3.4
2018-Jul-18 01:00N 30°04' W 093°23'2 3.5
2018-Jul-18 00:30N 30°04' W 093°21'2 4.0
2018-Jul-18 00:00N 30°05' W 093°20'2 3.5
2018-Jul-17 23:30N 30°05' W 093°18'1 1.8
2018-Jul-17 23:00N 30°05' W 093°17'0 0.1
2018-Jul-17 22:30N 30°05' W 093°17'0 0.1
2018-Jul-17 22:00N 30°05' W 093°17'0 0.1
2018-Jul-17 21:30N 30°05' W 093°17'0 0.0
2018-Jul-17 21:00N 30°05' W 093°17'0 0.0
2018-Jul-17 20:30N 30°05' W 093°17'0 0.0
2018-Jul-17 20:00N 30°05' W 093°17'0 0.0
2018-Jul-17 19:30N 30°05' W 093°17'0 0.0
2018-Jul-17 19:00N 30°05' W 093°17'0 0.0
2018-Jul-17 18:30N 30°05' W 093°17'0 0.0
2018-Jul-17 18:00N 30°05' W 093°17'0 0.0
2018-Jul-17 17:30N 30°05' W 093°17'0 0.0
2018-Jul-17 17:00N 30°05' W 093°17'0 0.0
2018-Jul-17 16:30N 30°05' W 093°17'0 0.0
2018-Jul-17 16:00N 30°05' W 093°17'0 0.0
2018-Jul-17 15:30N 30°05' W 093°17'0 0.0
2018-Jul-17 15:00N 30°05' W 093°17'0 0.0
2018-Jul-17 14:30N 30°05' W 093°17'0 0.0
2018-Jul-17 14:00N 30°05' W 093°17'0 0.0
2018-Jul-17 13:30N 30°05' W 093°17'0 0.0
2018-Jul-17 13:00N 30°05' W 093°17'0 0.0
2018-Jul-17 12:30N 30°05' W 093°17'0 0.0
2018-Jul-17 12:00N 30°05' W 093°17'0 0.0
2018-Jul-17 11:30N 30°05' W 093°17'0 0.0
2018-Jul-17 11:00N 30°05' W 093°17'0 0.0
2018-Jul-17 10:30N 30°05' W 093°17'0 0.0
2018-Jul-17 10:00N 30°05' W 093°17'1 1.9
2018-Jul-17 09:30N 30°04' W 093°16'1 1.8
2018-Jul-17 09:00N 30°03' W 093°16'1 2.5
2018-Jul-17 08:30N 30°02' W 093°15'0 0.0
2018-Jul-17 08:00N 30°02' W 093°15'0 0.0
2018-Jul-17 07:30N 30°02' W 093°15'0 0.0
2018-Jul-17 07:00N 30°02' W 093°15'0 0.0
2018-Jul-17 06:26N 30°02' W 093°15'0 0.0
2018-Jul-17 05:59N 30°02' W 093°15'0 0.0
2018-Jul-17 05:20N 30°02' W 093°15'0 0.0
2018-Jul-17 05:00N 30°02' W 093°15'0 0.0
2018-Jul-17 04:18N 30°02' W 093°15'0 0.0
2018-Jul-17 03:42N 30°02' W 093°15'0 0.0
2018-Jul-17 03:15N 30°02' W 093°15'0 0.0
2018-Jul-17 03:00N 30°02' W 093°15'0 0.0
2018-Jul-17 02:30N 30°02' W 093°15'0 0.0
2018-Jul-17 02:00N 30°02' W 093°15'0 0.0
2018-Jul-17 01:30N 30°02' W 093°15'0 0.0
2018-Jul-17 01:00N 30°02' W 093°15'0 0.0
2018-Jul-17 00:30N 30°02' W 093°15'0 0.0
2018-Jul-16 23:30N 30°02' W 093°15'0 0.0
2018-Jul-16 23:00N 30°02' W 093°15'0 0.0
2018-Jul-16 22:30N 30°02' W 093°15'0 0.0
2018-Jul-16 22:00N 30°02' W 093°15'0 0.0
2018-Jul-16 21:30N 30°02' W 093°15'0 0.0
2018-Jul-16 21:00N 30°02' W 093°15'0 0.0
2018-Jul-16 20:30N 30°02' W 093°15'0 0.0
2018-Jul-16 20:00N 30°02' W 093°15'0 0.0
2018-Jul-16 19:30N 30°02' W 093°15'0 0.0
2018-Jul-16 19:00N 30°02' W 093°15'0 0.0
2018-Jul-16 18:30N 30°02' W 093°15'0 0.0
2018-Jul-16 18:00N 30°02' W 093°15'0 0.0
2018-Jul-16 17:30N 30°02' W 093°15'0 0.0
2018-Jul-16 16:59N 30°02' W 093°15'0 0.0
2018-Jul-16 16:30N 30°02' W 093°15'0 0.0
2018-Jul-16 15:59N 30°02' W 093°15'0 0.0
2018-Jul-16 15:30N 30°02' W 093°15'0 0.0
2018-Jul-16 15:00N 30°02' W 093°15'0 0.0
2018-Jul-16 14:30N 30°02' W 093°15'0 0.0
2018-Jul-16 14:00N 30°02' W 093°15'0 0.0
2018-Jul-16 13:30N 30°02' W 093°15'0 0.0
2018-Jul-16 13:00N 30°02' W 093°15'0 0.0
2018-Jul-16 12:30N 30°02' W 093°15'0 0.0
2018-Jul-16 12:00N 30°02' W 093°15'0 0.0
2018-Jul-16 11:30N 30°02' W 093°15'0 0.1
2018-Jul-16 11:00N 30°02' W 093°15'0 0.0
2018-Jul-16 10:31N 30°02' W 093°15'0 0.0
2018-Jul-16 10:01N 30°02' W 093°15'0 0.0
2018-Jul-16 09:30N 30°02' W 093°15'0 0.0
2018-Jul-16 09:00N 30°02' W 093°15'1 1.3
2018-Jul-16 08:30N 30°02' W 093°14'2 3.3
2018-Jul-16 07:59N 30°00' W 093°13'5 0.8
2018-Jul-16 00:57N 29°56' W 093°09'2 0.2
2018-Jul-15 13:15N 29°56' W 093°07'40 2.4
2018-Jul-14 20:56N 29°51' W 092°22'3 5.7
2018-Jul-14 20:24N 29°50' W 092°18'2 5.5
2018-Jul-14 20:00N 29°49' W 092°16'3 5.9
2018-Jul-14 19:30N 29°48' W 092°13'1 1.7
2018-Jul-14 19:00N 29°47' W 092°12'1 2.7
2018-Jul-14 18:30N 29°47' W 092°11'3 5.5
2018-Jul-14 18:00N 29°47' W 092°08'3 5.4
2018-Jul-14 17:30N 29°48' W 092°05'  

Dump ship's entire track history